Terminal Aerodrome Forecast
Issued by NWS

Home | Current Version | Previous Version | Graphics & Text | Print | Product List | Glossary On
Versions: 1 2 3 4 5 6 7 8 9 10 11 12 13
000
FTUS43 KIWX 142300 RRA
TAFSBN
TAF
KSBN 142341Z 1500/1524 33014G22KT 6SM -SN OVC015
      TEMPO 1500/1504 3SM -SN
     FM150600 32012KT P6SM BKN025
     FM151300 33013G21KT P6SM BKN040=

USA.gov is the U.S. government's official web portal to all federal, state and local government web resources and services.